Terminal Aerodrome Forecast
Issued by NWS Green Bay, WI

Home | Current Version | Previous Version | Graphics & Text | Print | Product List | Glossary On
Versions: 1 2 3 4 5 6 7 8 9 10 11 12 13 14 15 16 17 18 19 20 21
000
FTUS43 KGRB 261732
TAFGRB
TAF
KGRB 261732Z 2618/2718 26017G30KT P6SM SCT050 BKN090
     FM270000 26016KT P6SM BKN100 PROB30 2710/2714 -SHRA OVC040=

USA.gov is the U.S. government's official web portal to all federal, state and local government web resources and services.